sensor_id;sensor_type;location;lat;lon;timestamp;P1;durP1;ratioP1;P2;durP2;ratioP2
75272;SDS011;63869;52.344;16.928;2023-03-21T00:01:28;26.93;;;15.27;;
75272;SDS011;63869;52.344;16.928;2023-03-21T00:03:54;27.58;;;14.93;;
75272;SDS011;63869;52.344;16.928;2023-03-21T00:06:19;26.67;;;15.50;;
75272;SDS011;63869;52.344;16.928;2023-03-21T00:08:45;26.47;;;15.03;;
75272;SDS011;63869;52.344;16.928;2023-03-21T00:11:11;27.93;;;15.03;;
75272;SDS011;63869;52.344;16.928;2023-03-21T00:13:37;29.47;;;15.60;;
75272;SDS011;63869;52.344;16.928;2023-03-21T00:16:07;28.88;;;16.00;;
75272;SDS011;63869;52.344;16.928;2023-03-21T00:18:35;30.27;;;15.88;;
75272;SDS011;63869;52.344;16.928;2023-03-21T00:21:04;31.17;;;16.23;;
75272;SDS011;63869;52.344;16.928;2023-03-21T00:23:30;29.83;;;16.10;;
75272;SDS011;63869;52.344;16.928;2023-03-21T00:25:57;31.57;;;15.43;;
75272;SDS011;63869;52.344;16.928;2023-03-21T00:28:23;28.85;;;15.85;;
75272;SDS011;63869;52.344;16.928;2023-03-21T00:30:50;30.33;;;15.43;;
75272;SDS011;63869;52.344;16.928;2023-03-21T00:33:15;27.25;;;15.48;;
75272;SDS011;63869;52.344;16.928;2023-03-21T00:35:44;28.92;;;15.10;;
75272;SDS011;63869;52.344;16.928;2023-03-21T00:38:12;27.85;;;15.00;;
75272;SDS011;63869;52.344;16.928;2023-03-21T00:40:38;26.90;;;15.23;;
75272;SDS011;63869;52.344;16.928;2023-03-21T00:43:04;27.37;;;14.47;;
75272;SDS011;63869;52.344;16.928;2023-03-21T00:45:29;27.65;;;14.55;;
75272;SDS011;63869;52.344;16.928;2023-03-21T00:47:55;27.67;;;14.27;;
75272;SDS011;63869;52.344;16.928;2023-03-21T00:50:22;25.20;;;14.07;;
75272;SDS011;63869;52.344;16.928;2023-03-21T00:52:48;24.42;;;13.25;;
75272;SDS011;63869;52.344;16.928;2023-03-21T00:55:14;24.57;;;12.90;;
75272;SDS011;63869;52.344;16.928;2023-03-21T00:57:41;22.48;;;11.90;;
75272;SDS011;63869;52.344;16.928;2023-03-21T01:00:08;21.33;;;11.63;;
75272;SDS011;63869;52.344;16.928;2023-03-21T01:02:35;21.08;;;11.50;;
75272;SDS011;63869;52.344;16.928;2023-03-21T01:05:02;21.85;;;11.82;;
75272;SDS011;63869;52.344;16.928;2023-03-21T01:07:28;21.13;;;11.80;;
75272;SDS011;63869;52.344;16.928;2023-03-21T01:09:54;18.92;;;10.93;;
75272;SDS011;63869;52.344;16.928;2023-03-21T01:12:19;21.33;;;11.37;;
75272;SDS011;63869;52.344;16.928;2023-03-21T01:14:44;20.83;;;11.35;;
75272;SDS011;63869;52.344;16.928;2023-03-21T01:17:10;21.17;;;11.10;;
75272;SDS011;63869;52.344;16.928;2023-03-21T01:19:35;19.27;;;10.80;;
75272;SDS011;63869;52.344;16.928;2023-03-21T01:22:01;22.00;;;11.37;;
75272;SDS011;63869;52.344;16.928;2023-03-21T01:24:26;20.20;;;11.73;;
75272;SDS011;63869;52.344;16.928;2023-03-21T01:26:53;19.27;;;11.27;;
75272;SDS011;63869;52.344;16.928;2023-03-21T01:29:19;20.90;;;11.23;;
75272;SDS011;63869;52.344;16.928;2023-03-21T01:31:45;20.55;;;12.02;;
75272;SDS011;63869;52.344;16.928;2023-03-21T01:34:10;20.90;;;11.73;;
75272;SDS011;63869;52.344;16.928;2023-03-21T01:36:35;22.77;;;12.20;;
75272;SDS011;63869;52.344;16.928;2023-03-21T01:39:01;21.23;;;11.60;;
75272;SDS011;63869;52.344;16.928;2023-03-21T01:43:55;21.33;;;11.00;;
75272;SDS011;63869;52.344;16.928;2023-03-21T01:49:08;21.63;;;11.43;;
75272;SDS011;63869;52.344;16.928;2023-03-21T01:51:40;19.77;;;10.88;;
75272;SDS011;63869;52.344;16.928;2023-03-21T01:54:12;18.13;;;10.70;;
75272;SDS011;63869;52.344;16.928;2023-03-21T01:56:41;18.75;;;10.90;;
75272;SDS011;63869;52.344;16.928;2023-03-21T01:59:11;18.55;;;10.60;;
75272;SDS011;63869;52.344;16.928;2023-03-21T02:01:47;19.40;;;10.63;;
75272;SDS011;63869;52.344;16.928;2023-03-21T02:04:15;20.52;;;11.13;;
75272;SDS011;63869;52.344;16.928;2023-03-21T02:06:50;19.23;;;10.55;;
75272;SDS011;63869;52.344;16.928;2023-03-21T02:09:18;19.42;;;10.88;;
75272;SDS011;63869;52.344;16.928;2023-03-21T02:11:47;19.33;;;10.48;;
75272;SDS011;63869;52.344;16.928;2023-03-21T02:14:14;18.10;;;10.52;;
75272;SDS011;63869;52.344;16.928;2023-03-21T02:16:45;18.67;;;10.63;;
75272;SDS011;63869;52.344;16.928;2023-03-21T02:25:15;19.65;;;11.02;;
75272;SDS011;63869;52.344;16.928;2023-03-21T02:30:54;21.27;;;11.45;;
75272;SDS011;63869;52.344;16.928;2023-03-21T02:39:15;17.27;;;10.30;;
75272;SDS011;63869;52.344;16.928;2023-03-21T02:42:05;17.23;;;10.23;;
75272;SDS011;63869;52.344;16.928;2023-03-21T02:47:21;17.53;;;10.10;;
75272;SDS011;63869;52.344;16.928;2023-03-21T02:52:29;17.38;;;9.98;;
75272;SDS011;63869;52.344;16.928;2023-03-21T02:54:57;17.38;;;9.70;;
75272;SDS011;63869;52.344;16.928;2023-03-21T02:57:25;17.93;;;9.83;;
75272;SDS011;63869;52.344;16.928;2023-03-21T02:59:51;19.47;;;9.80;;
75272;SDS011;63869;52.344;16.928;2023-03-21T03:02:19;18.15;;;10.10;;
75272;SDS011;63869;52.344;16.928;2023-03-21T03:04:49;16.17;;;9.20;;
75272;SDS011;63869;52.344;16.928;2023-03-21T03:12:39;16.25;;;9.82;;
75272;SDS011;63869;52.344;16.928;2023-03-21T03:18:38;16.23;;;9.13;;
75272;SDS011;63869;52.344;16.928;2023-03-21T03:24:03;17.50;;;9.60;;
75272;SDS011;63869;52.344;16.928;2023-03-21T03:26:35;16.92;;;9.32;;
75272;SDS011;63869;52.344;16.928;2023-03-21T03:29:05;17.13;;;9.50;;
75272;SDS011;63869;52.344;16.928;2023-03-21T03:31:34;16.07;;;9.03;;
75272;SDS011;63869;52.344;16.928;2023-03-21T03:34:05;17.25;;;9.70;;
75272;SDS011;63869;52.344;16.928;2023-03-21T03:36:37;18.30;;;9.70;;
75272;SDS011;63869;52.344;16.928;2023-03-21T03:39:06;17.90;;;9.48;;
75272;SDS011;63869;52.344;16.928;2023-03-21T03:41:37;17.08;;;10.00;;
75272;SDS011;63869;52.344;16.928;2023-03-21T03:44:09;17.35;;;9.80;;
75272;SDS011;63869;52.344;16.928;2023-03-21T03:46:35;16.02;;;9.25;;
75272;SDS011;63869;52.344;16.928;2023-03-21T03:49:23;16.00;;;9.00;;
75272;SDS011;63869;52.344;16.928;2023-03-21T03:52:01;16.27;;;9.20;;
75272;SDS011;63869;52.344;16.928;2023-03-21T03:54:44;16.52;;;9.38;;
75272;SDS011;63869;52.344;16.928;2023-03-21T03:57:12;15.98;;;9.85;;
75272;SDS011;63869;52.344;16.928;2023-03-21T03:59:38;17.85;;;9.90;;
75272;SDS011;63869;52.344;16.928;2023-03-21T04:02:06;17.38;;;9.80;;
75272;SDS011;63869;52.344;16.928;2023-03-21T04:04:31;17.10;;;10.88;;
75272;SDS011;63869;52.344;16.928;2023-03-21T04:06:58;17.33;;;11.07;;
75272;SDS011;63869;52.344;16.928;2023-03-21T04:09:24;19.50;;;12.00;;
75272;SDS011;63869;52.344;16.928;2023-03-21T04:11:52;19.17;;;11.82;;
75272;SDS011;63869;52.344;16.928;2023-03-21T04:14:18;19.30;;;11.80;;
75272;SDS011;63869;52.344;16.928;2023-03-21T04:16:43;19.43;;;11.10;;
75272;SDS011;63869;52.344;16.928;2023-03-21T04:19:09;17.53;;;9.93;;
75272;SDS011;63869;52.344;16.928;2023-03-21T04:21:34;18.17;;;10.43;;
75272;SDS011;63869;52.344;16.928;2023-03-21T04:24:00;17.53;;;10.80;;
75272;SDS011;63869;52.344;16.928;2023-03-21T04:26:26;22.03;;;11.50;;
75272;SDS011;63869;52.344;16.928;2023-03-21T04:28:57;21.95;;;12.00;;
75272;SDS011;63869;52.344;16.928;2023-03-21T04:31:24;19.92;;;12.18;;
75272;SDS011;63869;52.344;16.928;2023-03-21T04:33:52;23.27;;;12.40;;
75272;SDS011;63869;52.344;16.928;2023-03-21T04:36:19;20.90;;;12.27;;
75272;SDS011;63869;52.344;16.928;2023-03-21T04:38:51;23.38;;;12.63;;
75272;SDS011;63869;52.344;16.928;2023-03-21T04:41:17;21.10;;;12.15;;
75272;SDS011;63869;52.344;16.928;2023-03-21T04:43:43;20.33;;;11.68;;
75272;SDS011;63869;52.344;16.928;2023-03-21T04:46:08;21.40;;;12.13;;
75272;SDS011;63869;52.344;16.928;2023-03-21T04:48:34;20.73;;;11.60;;
75272;SDS011;63869;52.344;16.928;2023-03-21T04:50:59;20.83;;;11.77;;
75272;SDS011;63869;52.344;16.928;2023-03-21T04:53:24;21.47;;;11.30;;
75272;SDS011;63869;52.344;16.928;2023-03-21T04:55:50;19.13;;;10.93;;
75272;SDS011;63869;52.344;16.928;2023-03-21T04:58:15;22.17;;;11.95;;
75272;SDS011;63869;52.344;16.928;2023-03-21T05:00:41;21.67;;;11.87;;
75272;SDS011;63869;52.344;16.928;2023-03-21T05:03:06;20.00;;;11.40;;
75272;SDS011;63869;52.344;16.928;2023-03-21T05:05:33;23.33;;;12.35;;
75272;SDS011;63869;52.344;16.928;2023-03-21T05:08:00;24.50;;;12.20;;
75272;SDS011;63869;52.344;16.928;2023-03-21T05:10:26;20.80;;;11.73;;
75272;SDS011;63869;52.344;16.928;2023-03-21T05:12:52;21.87;;;11.67;;
75272;SDS011;63869;52.344;16.928;2023-03-21T05:15:17;21.23;;;11.57;;
75272;SDS011;63869;52.344;16.928;2023-03-21T05:17:42;21.87;;;12.17;;
75272;SDS011;63869;52.344;16.928;2023-03-21T05:20:08;20.67;;;12.00;;
75272;SDS011;63869;52.344;16.928;2023-03-21T05:22:35;21.13;;;12.67;;
75272;SDS011;63869;52.344;16.928;2023-03-21T05:25:05;22.27;;;13.38;;
75272;SDS011;63869;52.344;16.928;2023-03-21T05:27:33;21.27;;;12.60;;
75272;SDS011;63869;52.344;16.928;2023-03-21T05:30:07;24.88;;;12.93;;
75272;SDS011;63869;52.344;16.928;2023-03-21T05:32:38;25.38;;;12.65;;
75272;SDS011;63869;52.344;16.928;2023-03-21T05:35:04;22.53;;;11.77;;
75272;SDS011;63869;52.344;16.928;2023-03-21T05:37:29;22.15;;;12.30;;
75272;SDS011;63869;52.344;16.928;2023-03-21T05:39:55;25.63;;;12.93;;
75272;SDS011;63869;52.344;16.928;2023-03-21T05:42:20;31.50;;;17.60;;
75272;SDS011;63869;52.344;16.928;2023-03-21T05:44:45;34.77;;;18.93;;
75272;SDS011;63869;52.344;16.928;2023-03-21T05:47:11;29.70;;;17.55;;
75272;SDS011;63869;52.344;16.928;2023-03-21T05:49:38;28.60;;;15.43;;
75272;SDS011;63869;52.344;16.928;2023-03-21T05:52:03;27.10;;;17.20;;
75272;SDS011;63869;52.344;16.928;2023-03-21T05:54:28;25.98;;;15.48;;
75272;SDS011;63869;52.344;16.928;2023-03-21T05:56:54;23.83;;;14.87;;
75272;SDS011;63869;52.344;16.928;2023-03-21T05:59:19;24.40;;;15.43;;
75272;SDS011;63869;52.344;16.928;2023-03-21T06:01:45;23.98;;;14.95;;
75272;SDS011;63869;52.344;16.928;2023-03-21T06:04:10;25.65;;;15.90;;
75272;SDS011;63869;52.344;16.928;2023-03-21T06:06:36;25.77;;;14.70;;
75272;SDS011;63869;52.344;16.928;2023-03-21T06:09:01;27.02;;;17.40;;
75272;SDS011;63869;52.344;16.928;2023-03-21T06:11:30;22.47;;;13.53;;
75272;SDS011;63869;52.344;16.928;2023-03-21T06:13:58;26.83;;;15.38;;
75272;SDS011;63869;52.344;16.928;2023-03-21T06:16:24;25.05;;;15.32;;
75272;SDS011;63869;52.344;16.928;2023-03-21T06:18:49;27.20;;;15.68;;
75272;SDS011;63869;52.344;16.928;2023-03-21T06:21:15;24.90;;;12.07;;
75272;SDS011;63869;52.344;16.928;2023-03-21T06:23:40;19.45;;;10.43;;
75272;SDS011;63869;52.344;16.928;2023-03-21T06:26:06;19.23;;;10.27;;
75272;SDS011;63869;52.344;16.928;2023-03-21T06:28:32;19.88;;;10.25;;
75272;SDS011;63869;52.344;16.928;2023-03-21T06:30:57;20.80;;;9.63;;
75272;SDS011;63869;52.344;16.928;2023-03-21T06:33:23;17.80;;;9.27;;
75272;SDS011;63869;52.344;16.928;2023-03-21T06:35:55;20.38;;;10.00;;
75272;SDS011;63869;52.344;16.928;2023-03-21T06:40:48;22.30;;;10.02;;
75272;SDS011;63869;52.344;16.928;2023-03-21T06:43:13;22.85;;;10.60;;
75272;SDS011;63869;52.344;16.928;2023-03-21T06:45:40;22.63;;;12.38;;
75272;SDS011;63869;52.344;16.928;2023-03-21T06:48:06;22.20;;;11.50;;
75272;SDS011;63869;52.344;16.928;2023-03-21T06:50:31;22.20;;;11.55;;
75272;SDS011;63869;52.344;16.928;2023-03-21T06:52:56;19.52;;;10.15;;
75272;SDS011;63869;52.344;16.928;2023-03-21T06:55:23;23.05;;;10.73;;
75272;SDS011;63869;52.344;16.928;2023-03-21T06:57:51;21.40;;;11.23;;
75272;SDS011;63869;52.344;16.928;2023-03-21T07:00:17;15.90;;;8.45;;
75272;SDS011;63869;52.344;16.928;2023-03-21T07:02:43;21.90;;;10.27;;
75272;SDS011;63869;52.344;16.928;2023-03-21T07:05:08;20.63;;;9.10;;
75272;SDS011;63869;52.344;16.928;2023-03-21T07:07:34;18.27;;;9.60;;
75272;SDS011;63869;52.344;16.928;2023-03-21T07:09:59;20.25;;;9.60;;
75272;SDS011;63869;52.344;16.928;2023-03-21T07:12:26;22.42;;;9.98;;
75272;SDS011;63869;52.344;16.928;2023-03-21T07:14:51;16.63;;;8.55;;
75272;SDS011;63869;52.344;16.928;2023-03-21T07:17:17;16.20;;;9.10;;
75272;SDS011;63869;52.344;16.928;2023-03-21T07:19:42;20.00;;;10.57;;
75272;SDS011;63869;52.344;16.928;2023-03-21T07:22:08;20.67;;;9.95;;
75272;SDS011;63869;52.344;16.928;2023-03-21T07:24:33;33.42;;;19.13;;
75272;SDS011;63869;52.344;16.928;2023-03-21T07:26:59;26.70;;;14.68;;
75272;SDS011;63869;52.344;16.928;2023-03-21T07:29:24;23.25;;;12.48;;
75272;SDS011;63869;52.344;16.928;2023-03-21T07:31:51;24.20;;;12.88;;
75272;SDS011;63869;52.344;16.928;2023-03-21T07:34:16;18.00;;;9.05;;
75272;SDS011;63869;52.344;16.928;2023-03-21T07:36:44;24.88;;;13.00;;
75272;SDS011;63869;52.344;16.928;2023-03-21T07:39:10;27.38;;;14.95;;
75272;SDS011;63869;52.344;16.928;2023-03-21T07:41:35;20.90;;;12.95;;
75272;SDS011;63869;52.344;16.928;2023-03-21T07:44:01;21.88;;;13.50;;
75272;SDS011;63869;52.344;16.928;2023-03-21T07:46:27;23.55;;;13.25;;
75272;SDS011;63869;52.344;16.928;2023-03-21T07:48:53;21.85;;;13.63;;
75272;SDS011;63869;52.344;16.928;2023-03-21T07:51:18;22.53;;;14.53;;
75272;SDS011;63869;52.344;16.928;2023-03-21T07:53:43;32.38;;;21.50;;
75272;SDS011;63869;52.344;16.928;2023-03-21T07:56:13;24.35;;;14.70;;
75272;SDS011;63869;52.344;16.928;2023-03-21T07:58:39;20.42;;;12.18;;
75272;SDS011;63869;52.344;16.928;2023-03-21T08:01:06;24.10;;;13.38;;
75272;SDS011;63869;52.344;16.928;2023-03-21T08:03:32;25.50;;;14.52;;
75272;SDS011;63869;52.344;16.928;2023-03-21T08:05:58;25.20;;;14.40;;
75272;SDS011;63869;52.344;16.928;2023-03-21T08:08:25;23.98;;;15.60;;
75272;SDS011;63869;52.344;16.928;2023-03-21T08:10:50;32.00;;;20.70;;
75272;SDS011;63869;52.344;16.928;2023-03-21T08:13:16;24.07;;;16.00;;
75272;SDS011;63869;52.344;16.928;2023-03-21T08:15:41;24.07;;;16.30;;
75272;SDS011;63869;52.344;16.928;2023-03-21T08:18:07;42.93;;;26.70;;
75272;SDS011;63869;52.344;16.928;2023-03-21T08:20:33;21.80;;;13.85;;
75272;SDS011;63869;52.344;16.928;2023-03-21T08:22:58;20.33;;;14.07;;
75272;SDS011;63869;52.344;16.928;2023-03-21T08:25:24;20.87;;;13.57;;
75272;SDS011;63869;52.344;16.928;2023-03-21T08:27:50;21.40;;;14.13;;
75272;SDS011;63869;52.344;16.928;2023-03-21T08:30:17;20.60;;;13.57;;
75272;SDS011;63869;52.344;16.928;2023-03-21T08:32:44;18.85;;;12.65;;
75272;SDS011;63869;52.344;16.928;2023-03-21T08:35:10;20.53;;;13.00;;
75272;SDS011;63869;52.344;16.928;2023-03-21T08:37:37;20.88;;;13.00;;
75272;SDS011;63869;52.344;16.928;2023-03-21T08:40:04;22.60;;;13.68;;
75272;SDS011;63869;52.344;16.928;2023-03-21T08:42:37;25.52;;;17.45;;
75272;SDS011;63869;52.344;16.928;2023-03-21T08:45:05;21.98;;;14.18;;
75272;SDS011;63869;52.344;16.928;2023-03-21T08:47:31;28.00;;;17.77;;
75272;SDS011;63869;52.344;16.928;2023-03-21T08:49:58;21.73;;;13.68;;
75272;SDS011;63869;52.344;16.928;2023-03-21T08:52:23;33.63;;;20.67;;
75272;SDS011;63869;52.344;16.928;2023-03-21T08:54:49;20.20;;;12.27;;
75272;SDS011;63869;52.344;16.928;2023-03-21T08:57:15;26.90;;;16.27;;
75272;SDS011;63869;52.344;16.928;2023-03-21T08:59:41;22.50;;;14.30;;
75272;SDS011;63869;52.344;16.928;2023-03-21T09:02:06;27.95;;;17.67;;
75272;SDS011;63869;52.344;16.928;2023-03-21T09:04:31;37.63;;;21.87;;
75272;SDS011;63869;52.344;16.928;2023-03-21T09:06:57;31.02;;;18.88;;
75272;SDS011;63869;52.344;16.928;2023-03-21T09:09:25;22.08;;;12.93;;
75272;SDS011;63869;52.344;16.928;2023-03-21T09:11:53;23.27;;;14.55;;
75272;SDS011;63869;52.344;16.928;2023-03-21T09:14:19;24.17;;;16.40;;
75272;SDS011;63869;52.344;16.928;2023-03-21T09:16:44;21.42;;;14.38;;
75272;SDS011;63869;52.344;16.928;2023-03-21T09:19:10;22.23;;;15.00;;
75272;SDS011;63869;52.344;16.928;2023-03-21T09:21:35;23.23;;;15.27;;
75272;SDS011;63869;52.344;16.928;2023-03-21T09:24:02;21.95;;;14.13;;
75272;SDS011;63869;52.344;16.928;2023-03-21T09:26:30;21.20;;;12.40;;
75272;SDS011;63869;52.344;16.928;2023-03-21T09:28:58;29.52;;;17.55;;
75272;SDS011;63869;52.344;16.928;2023-03-21T09:31:25;21.17;;;13.50;;
75272;SDS011;63869;52.344;16.928;2023-03-21T09:33:52;22.15;;;13.65;;
75272;SDS011;63869;52.344;16.928;2023-03-21T09:36:18;32.17;;;19.77;;
75272;SDS011;63869;52.344;16.928;2023-03-21T09:38:45;19.33;;;13.48;;
75272;SDS011;63869;52.344;16.928;2023-03-21T09:41:16;24.33;;;14.77;;
75272;SDS011;63869;52.344;16.928;2023-03-21T09:46:54;24.53;;;15.93;;
75272;SDS011;63869;52.344;16.928;2023-03-21T09:49:29;21.92;;;14.80;;
75272;SDS011;63869;52.344;16.928;2023-03-21T09:52:00;22.58;;;13.50;;
75272;SDS011;63869;52.344;16.928;2023-03-21T09:54:36;35.90;;;21.35;;
75272;SDS011;63869;52.344;16.928;2023-03-21T09:59:57;20.30;;;13.27;;
75272;SDS011;63869;52.344;16.928;2023-03-21T10:02:50;21.95;;;14.23;;
75272;SDS011;63869;52.344;16.928;2023-03-21T10:10:47;26.98;;;17.88;;
75272;SDS011;63869;52.344;16.928;2023-03-21T10:13:20;24.25;;;15.35;;
75272;SDS011;63869;52.344;16.928;2023-03-21T10:15:48;24.50;;;16.80;;
75272;SDS011;63869;52.344;16.928;2023-03-21T10:18:18;19.67;;;13.63;;
75272;SDS011;63869;52.344;16.928;2023-03-21T10:20:47;28.88;;;19.80;;
75272;SDS011;63869;52.344;16.928;2023-03-21T10:23:14;20.00;;;13.57;;
75272;SDS011;63869;52.344;16.928;2023-03-21T10:25:44;20.05;;;13.80;;
75272;SDS011;63869;52.344;16.928;2023-03-21T10:28:21;17.57;;;12.80;;
75272;SDS011;63869;52.344;16.928;2023-03-21T10:30:54;20.83;;;13.50;;
75272;SDS011;63869;52.344;16.928;2023-03-21T10:33:25;19.42;;;13.40;;
75272;SDS011;63869;52.344;16.928;2023-03-21T10:35:55;22.52;;;15.73;;
75272;SDS011;63869;52.344;16.928;2023-03-21T10:38:25;20.08;;;14.02;;
75272;SDS011;63869;52.344;16.928;2023-03-21T10:40:51;18.42;;;13.73;;
75272;SDS011;63869;52.344;16.928;2023-03-21T10:45:57;20.65;;;14.10;;
75272;SDS011;63869;52.344;16.928;2023-03-21T10:48:22;19.53;;;13.93;;
75272;SDS011;63869;52.344;16.928;2023-03-21T10:50:49;19.57;;;14.70;;
75272;SDS011;63869;52.344;16.928;2023-03-21T10:53:17;19.52;;;13.80;;
75272;SDS011;63869;52.344;16.928;2023-03-21T10:55:47;20.45;;;13.82;;
75272;SDS011;63869;52.344;16.928;2023-03-21T10:58:19;21.52;;;14.27;;
75272;SDS011;63869;52.344;16.928;2023-03-21T11:01:05;23.17;;;15.20;;
75272;SDS011;63869;52.344;16.928;2023-03-21T11:03:37;29.02;;;17.20;;
75272;SDS011;63869;52.344;16.928;2023-03-21T11:06:10;20.75;;;14.60;;
75272;SDS011;63869;52.344;16.928;2023-03-21T11:08:49;22.17;;;15.43;;
75272;SDS011;63869;52.344;16.928;2023-03-21T11:14:00;25.23;;;16.80;;
75272;SDS011;63869;52.344;16.928;2023-03-21T11:16:39;25.15;;;17.92;;
75272;SDS011;63869;52.344;16.928;2023-03-21T11:19:13;24.17;;;17.20;;
75272;SDS011;63869;52.344;16.928;2023-03-21T11:21:43;24.92;;;17.52;;
75272;SDS011;63869;52.344;16.928;2023-03-21T11:24:13;24.98;;;17.35;;
75272;SDS011;63869;52.344;16.928;2023-03-21T11:26:42;22.13;;;16.23;;
75272;SDS011;63869;52.344;16.928;2023-03-21T11:29:28;21.83;;;15.50;;
75272;SDS011;63869;52.344;16.928;2023-03-21T11:32:11;21.27;;;15.18;;
75272;SDS011;63869;52.344;16.928;2023-03-21T11:34:45;21.27;;;15.15;;
75272;SDS011;63869;52.344;16.928;2023-03-21T11:37:27;22.02;;;14.90;;
75272;SDS011;63869;52.344;16.928;2023-03-21T11:42:44;19.30;;;14.55;;
75272;SDS011;63869;52.344;16.928;2023-03-21T11:45:15;20.85;;;14.40;;
75272;SDS011;63869;52.344;16.928;2023-03-21T11:47:42;18.98;;;14.25;;
75272;SDS011;63869;52.344;16.928;2023-03-21T11:52:50;16.92;;;12.18;;
75272;SDS011;63869;52.344;16.928;2023-03-21T11:58:14;18.00;;;12.75;;
75272;SDS011;63869;52.344;16.928;2023-03-21T12:00:48;13.10;;;9.70;;
75272;SDS011;63869;52.344;16.928;2023-03-21T12:05:55;14.63;;;11.23;;
75272;SDS011;63869;52.344;16.928;2023-03-21T12:08:29;14.75;;;9.50;;
75272;SDS011;63869;52.344;16.928;2023-03-21T12:14:02;13.65;;;9.45;;
75272;SDS011;63869;52.344;16.928;2023-03-21T12:25:01;13.60;;;9.87;;
75272;SDS011;63869;52.344;16.928;2023-03-21T12:30:18;15.23;;;9.77;;
75272;SDS011;63869;52.344;16.928;2023-03-21T12:32:51;12.38;;;9.02;;
75272;SDS011;63869;52.344;16.928;2023-03-21T12:35:46;12.70;;;9.60;;
75272;SDS011;63869;52.344;16.928;2023-03-21T12:38:22;13.25;;;9.43;;
75272;SDS011;63869;52.344;16.928;2023-03-21T12:44:04;12.80;;;9.43;;
75272;SDS011;63869;52.344;16.928;2023-03-21T12:46:37;14.93;;;9.88;;
75272;SDS011;63869;52.344;16.928;2023-03-21T12:51:41;15.15;;;10.77;;
75272;SDS011;63869;52.344;16.928;2023-03-21T12:59:43;14.52;;;10.85;;
75272;SDS011;63869;52.344;16.928;2023-03-21T13:02:33;14.15;;;10.80;;
75272;SDS011;63869;52.344;16.928;2023-03-21T13:10:28;17.10;;;11.30;;
75272;SDS011;63869;52.344;16.928;2023-03-21T13:18:34;13.95;;;10.68;;
75272;SDS011;63869;52.344;16.928;2023-03-21T13:21:38;19.20;;;13.18;;
75272;SDS011;63869;52.344;16.928;2023-03-21T13:24:19;17.67;;;12.13;;
75272;SDS011;63869;52.344;16.928;2023-03-21T13:27:03;17.00;;;12.18;;
75272;SDS011;63869;52.344;16.928;2023-03-21T13:32:33;23.25;;;14.68;;
75272;SDS011;63869;52.344;16.928;2023-03-21T13:37:34;30.63;;;18.02;;
75272;SDS011;63869;52.344;16.928;2023-03-21T13:40:06;22.73;;;15.77;;
75272;SDS011;63869;52.344;16.928;2023-03-21T13:42:44;20.77;;;13.82;;
75272;SDS011;63869;52.344;16.928;2023-03-21T13:45:22;18.98;;;13.60;;
75272;SDS011;63869;52.344;16.928;2023-03-21T13:55:28;20.05;;;14.15;;
75272;SDS011;63869;52.344;16.928;2023-03-21T13:57:55;20.42;;;13.90;;
75272;SDS011;63869;52.344;16.928;2023-03-21T14:00:27;21.13;;;13.95;;
75272;SDS011;63869;52.344;16.928;2023-03-21T14:03:12;21.50;;;14.18;;
75272;SDS011;63869;52.344;16.928;2023-03-21T14:05:47;18.48;;;13.18;;
75272;SDS011;63869;52.344;16.928;2023-03-21T14:08:14;19.05;;;13.73;;
75272;SDS011;63869;52.344;16.928;2023-03-21T14:10:42;19.23;;;13.48;;
75272;SDS011;63869;52.344;16.928;2023-03-21T14:13:15;21.10;;;13.50;;
75272;SDS011;63869;52.344;16.928;2023-03-21T14:15:44;21.70;;;14.50;;
75272;SDS011;63869;52.344;16.928;2023-03-21T14:18:14;24.00;;;16.08;;
75272;SDS011;63869;52.344;16.928;2023-03-21T14:20:54;21.83;;;15.43;;
75272;SDS011;63869;52.344;16.928;2023-03-21T14:23:22;22.30;;;14.55;;
75272;SDS011;63869;52.344;16.928;2023-03-21T14:25:49;20.27;;;14.55;;
75272;SDS011;63869;52.344;16.928;2023-03-21T14:28:19;21.85;;;14.02;;
75272;SDS011;63869;52.344;16.928;2023-03-21T14:30:52;23.42;;;15.10;;
75272;SDS011;63869;52.344;16.928;2023-03-21T14:35:57;31.30;;;22.92;;
75272;SDS011;63869;52.344;16.928;2023-03-21T14:38:25;20.63;;;14.75;;
75272;SDS011;63869;52.344;16.928;2023-03-21T14:40:56;24.13;;;15.35;;
75272;SDS011;63869;52.344;16.928;2023-03-21T14:43:23;19.45;;;13.70;;
75272;SDS011;63869;52.344;16.928;2023-03-21T14:45:50;21.63;;;16.08;;
75272;SDS011;63869;52.344;16.928;2023-03-21T14:48:18;19.35;;;13.60;;
75272;SDS011;63869;52.344;16.928;2023-03-21T14:50:45;21.45;;;14.00;;
75272;SDS011;63869;52.344;16.928;2023-03-21T14:53:14;20.15;;;13.50;;
75272;SDS011;63869;52.344;16.928;2023-03-21T14:55:57;22.73;;;14.00;;
75272;SDS011;63869;52.344;16.928;2023-03-21T14:58:24;24.70;;;16.13;;
75272;SDS011;63869;52.344;16.928;2023-03-21T15:00:52;35.22;;;22.85;;
75272;SDS011;63869;52.344;16.928;2023-03-21T15:03:21;21.23;;;13.80;;
75272;SDS011;63869;52.344;16.928;2023-03-21T15:05:48;19.80;;;14.10;;
75272;SDS011;63869;52.344;16.928;2023-03-21T15:08:15;18.70;;;13.32;;
75272;SDS011;63869;52.344;16.928;2023-03-21T15:10:52;19.10;;;13.80;;
75272;SDS011;63869;52.344;16.928;2023-03-21T15:13:28;18.63;;;13.75;;
75272;SDS011;63869;52.344;16.928;2023-03-21T15:15:56;20.87;;;14.00;;
75272;SDS011;63869;52.344;16.928;2023-03-21T15:18:26;21.20;;;13.93;;
75272;SDS011;63869;52.344;16.928;2023-03-21T15:20:54;18.73;;;13.43;;
75272;SDS011;63869;52.344;16.928;2023-03-21T15:23:27;19.63;;;13.27;;
75272;SDS011;63869;52.344;16.928;2023-03-21T15:25:57;19.10;;;13.80;;
75272;SDS011;63869;52.344;16.928;2023-03-21T15:28:27;20.98;;;12.90;;
75272;SDS011;63869;52.344;16.928;2023-03-21T15:30:57;20.90;;;13.93;;
75272;SDS011;63869;52.344;16.928;2023-03-21T15:33:23;18.90;;;13.30;;
75272;SDS011;63869;52.344;16.928;2023-03-21T15:35:53;27.17;;;21.77;;
75272;SDS011;63869;52.344;16.928;2023-03-21T15:41:42;18.67;;;13.05;;
75272;SDS011;63869;52.344;16.928;2023-03-21T15:44:10;17.08;;;11.70;;
75272;SDS011;63869;52.344;16.928;2023-03-21T15:46:45;17.27;;;12.20;;
75272;SDS011;63869;52.344;16.928;2023-03-21T15:49:36;17.15;;;12.82;;
75272;SDS011;63869;52.344;16.928;2023-03-21T15:54:48;18.92;;;13.90;;
75272;SDS011;63869;52.344;16.928;2023-03-21T15:57:23;28.95;;;18.85;;
75272;SDS011;63869;52.344;16.928;2023-03-21T15:59:54;22.60;;;15.50;;
75272;SDS011;63869;52.344;16.928;2023-03-21T16:02:23;28.90;;;18.50;;
75272;SDS011;63869;52.344;16.928;2023-03-21T16:04:56;54.67;;;28.83;;
75272;SDS011;63869;52.344;16.928;2023-03-21T16:07:24;20.73;;;14.17;;
75272;SDS011;63869;52.344;16.928;2023-03-21T16:09:55;28.95;;;18.52;;
75272;SDS011;63869;52.344;16.928;2023-03-21T16:12:23;33.33;;;20.42;;
75272;SDS011;63869;52.344;16.928;2023-03-21T16:14:51;43.35;;;25.98;;
75272;SDS011;63869;52.344;16.928;2023-03-21T16:17:33;30.48;;;19.70;;
75272;SDS011;63869;52.344;16.928;2023-03-21T16:20:12;27.38;;;17.08;;
75272;SDS011;63869;52.344;16.928;2023-03-21T16:22:44;23.77;;;16.45;;
75272;SDS011;63869;52.344;16.928;2023-03-21T16:25:09;26.70;;;15.60;;
75272;SDS011;63869;52.344;16.928;2023-03-21T16:27:35;24.48;;;17.05;;